»·PEaware :: N698J KAVQ-KBXK

N698J :: KAVQ-KBXK

FLIGHT INFORMATION

Flight Status: Arrived
Operator: Privately registered:
United States
More flights under this callsign
Pilot: Ahmad S. (5672)
Aircraft: BEECH AIRCRAFT BARON
(BE58)
More flights by this aircraft type
Origin: KAVQ Marana Northwest Regl
United States
Destination: KBXK Buckeye Mun
United States
More flights between these airports :: More routes between these airports
Route: TOTEC V16 PERKY
File this flight plan on PilotEdge
Remarks:
Altitude:
(Current/Filed)
8,000ft
Speed:
(Current/Filed)
175kts
Departed: 28-Nov-20 02:19 PM
Arrived: 28-Nov-20 02:59 PM
Distance/Time
Traveled:
96nm/0:40
Distance/Time
To Go:
Arrived

Flight Plot

Page will automatically refresh every two minutes.

Flight plan parsing failed; only flown route is shown


Map Options




Map Legend


Flown Route
Filed Route
Departure Airport
Arrival Airport
Navaid (VOR, NDB)
Fix

Horizontal Profiles

Position Reports

Time Latitude Longitude Heading Altitude Ground
Speed
28-Nov-20 14:03 32.405214 -111.214775 41 2029ft 0kts
28-Nov-20 14:04 32.405214 -111.214775 41 2029ft 0kts
28-Nov-20 14:05 32.405214 -111.214775 41 2029ft 0kts
28-Nov-20 14:06 32.405214 -111.214775 41 2029ft 0kts
28-Nov-20 14:07 32.405214 -111.214775 41 2029ft 0kts
28-Nov-20 14:08 32.405214 -111.214775 41 2029ft 0kts
28-Nov-20 14:09 32.405214 -111.214775 41 2029ft 0kts
28-Nov-20 14:10 32.405214 -111.214775 41 2029ft 0kts
28-Nov-20 14:11 32.405214 -111.214776 41 2029ft 0kts
28-Nov-20 14:12 32.405214 -111.214776 41 2029ft 0kts
28-Nov-20 14:13 32.405406 -111.214360 106 2030ft 9kts
28-Nov-20 14:14 32.403591 -111.211439 72 2034ft 7kts
28-Nov-20 14:15 32.403625 -111.211365 51 2034ft 0kts
28-Nov-20 14:16 32.403625 -111.211365 51 2034ft 0kts
28-Nov-20 14:17 32.404504 -111.211026 323 2034ft 19kts
28-Nov-20 14:18 32.425602 -111.234857 319 3598ft 126kts
28-Nov-20 14:19 32.459413 -111.266210 321 5282ft 170kts
28-Nov-20 14:20 32.494587 -111.304860 317 6762ft 174kts
28-Nov-20 14:21 32.532084 -111.342814 323 7844ft 184kts
28-Nov-20 14:22 32.573123 -111.384106 319 7981ft 198kts
28-Nov-20 14:23 32.614932 -111.426877 322 7998ft 198kts
28-Nov-20 14:24 32.657001 -111.469220 320 8016ft 199kts
28-Nov-20 14:25 32.699013 -111.512265 322 8013ft 199kts
28-Nov-20 14:26 32.741103 -111.554856 320 8010ft 199kts
28-Nov-20 14:27 32.783057 -111.597807 321 8007ft 198kts
28-Nov-20 14:28 32.825666 -111.639478 328 8004ft 198kts
28-Nov-20 14:29 32.874973 -111.668317 340 8000ft 196kts
28-Nov-20 14:30 32.924847 -111.694744 335 7998ft 197kts
28-Nov-20 14:31 32.974605 -111.722053 338 7997ft 196kts
28-Nov-20 14:32 33.024695 -111.748537 335 7996ft 197kts
28-Nov-20 14:33 33.074464 -111.775893 337 7995ft 196kts
28-Nov-20 14:34 33.124485 -111.802486 336 8003ft 196kts
28-Nov-20 14:35 33.174222 -111.829782 337 8018ft 196kts
28-Nov-20 14:36 33.224206 -111.856549 336 8019ft 196kts
28-Nov-20 14:37 33.274074 -111.883859 336 7998ft 197kts
28-Nov-20 14:38 33.323999 -111.910774 336 7995ft 196kts
28-Nov-20 14:39 33.373785 -111.937998 336 7989ft 197kts
28-Nov-20 14:40 33.422855 -111.965191 325 7259ft 191kts
28-Nov-20 14:41 33.437363 -112.024230 269 6461ft 193kts
28-Nov-20 14:42 33.435731 -112.087638 270 6011ft 185kts
28-Nov-20 14:43 33.438114 -112.148419 273 5982ft 182kts
28-Nov-20 14:44 33.439164 -112.209170 271 5656ft 174kts
28-Nov-20 14:45 33.440731 -112.264285 273 4850ft 162kts
28-Nov-20 14:46 33.442108 -112.318290 271 4125ft 159kts
28-Nov-20 14:47 33.443193 -112.369208 273 4017ft 150kts
28-Nov-20 14:48 33.444589 -112.418877 272 4010ft 148kts
28-Nov-20 14:49 33.445264 -112.471772 269 4012ft 175kts
28-Nov-20 14:50 33.441189 -112.529514 269 3780ft 169kts
28-Nov-20 14:51 33.441437 -112.583891 272 3071ft 150kts
28-Nov-20 14:52 33.441823 -112.630771 272 2555ft 128kts
28-Nov-20 14:53 33.441834 -112.676641 272 2517ft 146kts
28-Nov-20 14:54 33.431732 -112.717321 200 2061ft 129kts
28-Nov-20 14:55 33.397170 -112.722154 181 1947ft 126kts
28-Nov-20 14:56 33.388799 -112.694651 33 1473ft 125kts
28-Nov-20 14:57 33.414184 -112.686548 358 1016ft 88kts
28-Nov-20 14:58 33.420885 -112.685337 97 1013ft 0kts
28-Nov-20 14:59 33.421461 -112.683386 158 1014ft 14kts
28-Nov-20 15:00 33.419581 -112.684295 174 1010ft 7kts
28-Nov-20 15:01 33.419542 -112.683995 359 1010ft 0kts
28-Nov-20 15:02 33.419542 -112.683995 359 1010ft 0kts
28-Nov-20 15:03 33.419542 -112.683995 359 1010ft 0kts
28-Nov-20 15:04 33.419542 -112.683995 359 1010ft 0kts
28-Nov-20 15:05 33.419542 -112.683995 359 1010ft 0kts
28-Nov-20 15:06 33.419542 -112.683995 359 1010ft 0kts
28-Nov-20 15:07 33.419542 -112.683995 359 1010ft 0kts
28-Nov-20 15:08 33.419542 -112.683995 359 1010ft 0kts
28-Nov-20 15:09 33.419542 -112.683995 359 1010ft 0kts
28-Nov-20 15:10 33.419542 -112.683995 359 1010ft 0kts
28-Nov-20 15:11 33.419542 -112.683995 359 1010ft 0kts
28-Nov-20 15:12 33.419542 -112.683995 359 1010ft 0kts

Navigation Log

Ident Type
Flight plan parsing failed, navigation log unavailable